sensor_id;sensor_type;location;lat;lon;timestamp;temperature;humidity
5210;DHT22;2624;48.048;11.706;2023-05-07T00:03:25;13.40;99.90
5210;DHT22;2624;48.048;11.706;2023-05-07T00:08:29;13.30;99.90
5210;DHT22;2624;48.048;11.706;2023-05-07T00:13:30;13.30;99.90
5210;DHT22;2624;48.048;11.706;2023-05-07T00:18:35;13.30;99.90
5210;DHT22;2624;48.048;11.706;2023-05-07T00:23:38;13.80;99.90
5210;DHT22;2624;48.048;11.706;2023-05-07T00:28:40;14.20;99.90
5210;DHT22;2624;48.048;11.706;2023-05-07T00:33:42;14.20;99.90
5210;DHT22;2624;48.048;11.706;2023-05-07T00:38:45;14.20;99.90
5210;DHT22;2624;48.048;11.706;2023-05-07T00:43:47;13.80;99.90
5210;DHT22;2624;48.048;11.706;2023-05-07T00:48:52;13.90;99.90
5210;DHT22;2624;48.048;11.706;2023-05-07T00:53:56;14.10;99.90
5210;DHT22;2624;48.048;11.706;2023-05-07T00:58:58;13.40;99.90
5210;DHT22;2624;48.048;11.706;2023-05-07T01:04:00;13.40;99.90
5210;DHT22;2624;48.048;11.706;2023-05-07T01:09:05;13.70;99.90
5210;DHT22;2624;48.048;11.706;2023-05-07T01:14:07;13.50;99.90
5210;DHT22;2624;48.048;11.706;2023-05-07T01:19:11;13.90;99.90
5210;DHT22;2624;48.048;11.706;2023-05-07T01:24:16;14.00;99.90
5210;DHT22;2624;48.048;11.706;2023-05-07T01:29:19;13.80;99.90
5210;DHT22;2624;48.048;11.706;2023-05-07T01:34:21;13.10;99.90
5210;DHT22;2624;48.048;11.706;2023-05-07T01:39:26;13.50;99.90
5210;DHT22;2624;48.048;11.706;2023-05-07T01:44:28;13.90;99.90
5210;DHT22;2624;48.048;11.706;2023-05-07T01:49:30;13.60;99.90
5210;DHT22;2624;48.048;11.706;2023-05-07T01:54:33;13.50;99.90
5210;DHT22;2624;48.048;11.706;2023-05-07T01:59:35;13.20;99.90
5210;DHT22;2624;48.048;11.706;2023-05-07T02:04:37;12.70;99.90
5210;DHT22;2624;48.048;11.706;2023-05-07T02:09:40;12.60;99.90
5210;DHT22;2624;48.048;11.706;2023-05-07T02:14:42;12.70;99.90
5210;DHT22;2624;48.048;11.706;2023-05-07T02:19:44;12.70;99.90
5210;DHT22;2624;48.048;11.706;2023-05-07T02:24:47;12.90;99.90
5210;DHT22;2624;48.048;11.706;2023-05-07T02:29:49;13.00;99.90
5210;DHT22;2624;48.048;11.706;2023-05-07T02:34:51;13.00;99.90
5210;DHT22;2624;48.048;11.706;2023-05-07T02:39:54;13.00;99.90
5210;DHT22;2624;48.048;11.706;2023-05-07T02:44:56;12.60;99.90
5210;DHT22;2624;48.048;11.706;2023-05-07T02:49:57;12.80;99.90
5210;DHT22;2624;48.048;11.706;2023-05-07T02:55:00;12.60;99.90
5210;DHT22;2624;48.048;11.706;2023-05-07T03:00:11;12.50;99.90
5210;DHT22;2624;48.048;11.706;2023-05-07T03:05:13;12.90;99.90
5210;DHT22;2624;48.048;11.706;2023-05-07T03:10:16;12.70;99.90
5210;DHT22;2624;48.048;11.706;2023-05-07T03:15:19;13.10;99.90
5210;DHT22;2624;48.048;11.706;2023-05-07T03:20:20;12.40;99.90
5210;DHT22;2624;48.048;11.706;2023-05-07T03:25:24;12.50;99.90
5210;DHT22;2624;48.048;11.706;2023-05-07T03:30:25;12.20;99.90
5210;DHT22;2624;48.048;11.706;2023-05-07T03:35:27;12.10;99.90
5210;DHT22;2624;48.048;11.706;2023-05-07T03:40:30;12.20;99.90
5210;DHT22;2624;48.048;11.706;2023-05-07T03:45:32;12.30;99.90
5210;DHT22;2624;48.048;11.706;2023-05-07T03:50:34;12.70;99.90
5210;DHT22;2624;48.048;11.706;2023-05-07T03:55:37;12.90;99.90
5210;DHT22;2624;48.048;11.706;2023-05-07T04:00:38;13.00;99.90
5210;DHT22;2624;48.048;11.706;2023-05-07T04:05:41;13.00;99.90
5210;DHT22;2624;48.048;11.706;2023-05-07T04:10:44;12.70;99.90
5210;DHT22;2624;48.048;11.706;2023-05-07T04:15:46;11.80;99.90
5210;DHT22;2624;48.048;11.706;2023-05-07T04:20:49;12.00;99.90
5210;DHT22;2624;48.048;11.706;2023-05-07T04:25:52;12.10;99.90
5210;DHT22;2624;48.048;11.706;2023-05-07T04:30:54;12.50;99.90
5210;DHT22;2624;48.048;11.706;2023-05-07T04:35:56;12.70;99.90
5210;DHT22;2624;48.048;11.706;2023-05-07T04:41:03;12.30;99.90
5210;DHT22;2624;48.048;11.706;2023-05-07T04:46:05;12.20;99.90
5210;DHT22;2624;48.048;11.706;2023-05-07T04:51:07;12.40;99.90
5210;DHT22;2624;48.048;11.706;2023-05-07T04:56:10;12.20;99.90
5210;DHT22;2624;48.048;11.706;2023-05-07T05:01:12;12.00;99.90
5210;DHT22;2624;48.048;11.706;2023-05-07T05:06:13;12.10;99.90
5210;DHT22;2624;48.048;11.706;2023-05-07T05:11:17;12.10;99.90
5210;DHT22;2624;48.048;11.706;2023-05-07T05:16:18;12.30;99.90
5210;DHT22;2624;48.048;11.706;2023-05-07T05:21:20;12.00;99.90
5210;DHT22;2624;48.048;11.706;2023-05-07T05:26:24;11.80;99.90
5210;DHT22;2624;48.048;11.706;2023-05-07T05:31:26;11.70;99.90
5210;DHT22;2624;48.048;11.706;2023-05-07T05:36:28;11.70;99.90
5210;DHT22;2624;48.048;11.706;2023-05-07T05:41:32;11.90;99.90
5210;DHT22;2624;48.048;11.706;2023-05-07T05:46:34;12.00;99.90
5210;DHT22;2624;48.048;11.706;2023-05-07T05:51:36;12.20;99.90
5210;DHT22;2624;48.048;11.706;2023-05-07T05:56:39;12.30;99.90
5210;DHT22;2624;48.048;11.706;2023-05-07T06:01:41;12.40;99.90
5210;DHT22;2624;48.048;11.706;2023-05-07T06:06:43;12.40;99.90
5210;DHT22;2624;48.048;11.706;2023-05-07T06:11:47;12.50;99.90
5210;DHT22;2624;48.048;11.706;2023-05-07T06:16:49;12.70;99.90
5210;DHT22;2624;48.048;11.706;2023-05-07T06:21:51;12.70;99.90
5210;DHT22;2624;48.048;11.706;2023-05-07T06:26:54;12.80;99.90
5210;DHT22;2624;48.048;11.706;2023-05-07T06:31:56;13.00;99.90
5210;DHT22;2624;48.048;11.706;2023-05-07T06:36:57;13.10;99.90
5210;DHT22;2624;48.048;11.706;2023-05-07T06:42:01;13.30;99.90
5210;DHT22;2624;48.048;11.706;2023-05-07T06:47:03;13.40;99.90
5210;DHT22;2624;48.048;11.706;2023-05-07T06:52:05;13.50;99.90
5210;DHT22;2624;48.048;11.706;2023-05-07T06:57:08;13.70;99.90
5210;DHT22;2624;48.048;11.706;2023-05-07T07:02:10;13.90;99.90
5210;DHT22;2624;48.048;11.706;2023-05-07T07:07:12;13.90;99.90
5210;DHT22;2624;48.048;11.706;2023-05-07T07:12:15;14.20;99.90
5210;DHT22;2624;48.048;11.706;2023-05-07T07:17:17;14.40;99.90
5210;DHT22;2624;48.048;11.706;2023-05-07T07:22:18;14.40;99.90
5210;DHT22;2624;48.048;11.706;2023-05-07T07:27:21;14.60;99.90
5210;DHT22;2624;48.048;11.706;2023-05-07T07:32:23;14.80;99.90
5210;DHT22;2624;48.048;11.706;2023-05-07T07:37:26;15.20;99.90
5210;DHT22;2624;48.048;11.706;2023-05-07T07:42:29;15.20;99.90
5210;DHT22;2624;48.048;11.706;2023-05-07T07:47:30;15.20;99.90
5210;DHT22;2624;48.048;11.706;2023-05-07T07:52:32;14.90;99.90
5210;DHT22;2624;48.048;11.706;2023-05-07T07:57:35;15.00;99.90
5210;DHT22;2624;48.048;11.706;2023-05-07T08:02:37;15.50;99.90
5210;DHT22;2624;48.048;11.706;2023-05-07T08:07:39;15.70;99.90
5210;DHT22;2624;48.048;11.706;2023-05-07T08:12:42;15.80;99.90
5210;DHT22;2624;48.048;11.706;2023-05-07T08:17:44;16.00;99.90
5210;DHT22;2624;48.048;11.706;2023-05-07T08:22:46;15.40;99.90
5210;DHT22;2624;48.048;11.706;2023-05-07T08:27:49;15.80;99.90
5210;DHT22;2624;48.048;11.706;2023-05-07T08:32:50;15.60;99.90
5210;DHT22;2624;48.048;11.706;2023-05-07T08:37:52;15.80;99.90
5210;DHT22;2624;48.048;11.706;2023-05-07T08:42:56;15.80;99.90
5210;DHT22;2624;48.048;11.706;2023-05-07T08:47:59;16.00;99.90
5210;DHT22;2624;48.048;11.706;2023-05-07T08:53:03;16.00;99.90
5210;DHT22;2624;48.048;11.706;2023-05-07T08:58:07;16.30;99.90
5210;DHT22;2624;48.048;11.706;2023-05-07T09:03:09;16.30;99.90
5210;DHT22;2624;48.048;11.706;2023-05-07T09:08:15;16.60;99.90
5210;DHT22;2624;48.048;11.706;2023-05-07T09:13:18;17.50;99.90
5210;DHT22;2624;48.048;11.706;2023-05-07T09:18:20;16.90;99.90
5210;DHT22;2624;48.048;11.706;2023-05-07T09:23:22;16.90;99.90
5210;DHT22;2624;48.048;11.706;2023-05-07T09:28:25;16.80;99.90
5210;DHT22;2624;48.048;11.706;2023-05-07T09:33:27;16.90;99.90
5210;DHT22;2624;48.048;11.706;2023-05-07T09:38:30;16.90;99.90
5210;DHT22;2624;48.048;11.706;2023-05-07T09:43:34;17.00;99.90
5210;DHT22;2624;48.048;11.706;2023-05-07T09:48:38;17.30;99.90
5210;DHT22;2624;48.048;11.706;2023-05-07T09:53:41;17.40;99.90
5210;DHT22;2624;48.048;11.706;2023-05-07T09:58:45;17.30;99.90
5210;DHT22;2624;48.048;11.706;2023-05-07T10:03:48;17.40;99.90
5210;DHT22;2624;48.048;11.706;2023-05-07T10:08:52;17.80;99.90
5210;DHT22;2624;48.048;11.706;2023-05-07T10:13:56;17.50;99.90
5210;DHT22;2624;48.048;11.706;2023-05-07T10:18:58;17.70;99.90
5210;DHT22;2624;48.048;11.706;2023-05-07T10:24:04;17.60;99.90
5210;DHT22;2624;48.048;11.706;2023-05-07T10:29:15;17.50;99.90
5210;DHT22;2624;48.048;11.706;2023-05-07T10:34:23;17.60;99.90
5210;DHT22;2624;48.048;11.706;2023-05-07T10:39:26;17.90;99.90
5210;DHT22;2624;48.048;11.706;2023-05-07T10:44:30;18.20;99.90
5210;DHT22;2624;48.048;11.706;2023-05-07T10:49:32;18.90;99.90
5210;DHT22;2624;48.048;11.706;2023-05-07T10:54:34;19.00;99.90
5210;DHT22;2624;48.048;11.706;2023-05-07T10:59:40;18.70;99.90
5210;DHT22;2624;48.048;11.706;2023-05-07T11:04:44;18.40;99.90
5210;DHT22;2624;48.048;11.706;2023-05-07T11:09:59;18.30;99.90
5210;DHT22;2624;48.048;11.706;2023-05-07T11:15:06;18.30;99.90
5210;DHT22;2624;48.048;11.706;2023-05-07T11:20:09;18.30;99.90
5210;DHT22;2624;48.048;11.706;2023-05-07T11:25:17;18.60;99.90
5210;DHT22;2624;48.048;11.706;2023-05-07T11:30:21;18.90;99.90
5210;DHT22;2624;48.048;11.706;2023-05-07T11:35:23;18.70;99.90
5210;DHT22;2624;48.048;11.706;2023-05-07T11:40:26;19.20;99.90
5210;DHT22;2624;48.048;11.706;2023-05-07T11:45:30;19.10;99.90
5210;DHT22;2624;48.048;11.706;2023-05-07T11:50:32;19.10;99.90
5210;DHT22;2624;48.048;11.706;2023-05-07T11:55:34;19.50;99.90
5210;DHT22;2624;48.048;11.706;2023-05-07T12:00:37;19.70;99.90
5210;DHT22;2624;48.048;11.706;2023-05-07T12:05:39;19.50;99.90
5210;DHT22;2624;48.048;11.706;2023-05-07T12:10:42;19.60;99.90
5210;DHT22;2624;48.048;11.706;2023-05-07T12:15:45;19.70;99.90
5210;DHT22;2624;48.048;11.706;2023-05-07T12:20:47;19.30;99.90
5210;DHT22;2624;48.048;11.706;2023-05-07T12:25:49;19.30;99.90
5210;DHT22;2624;48.048;11.706;2023-05-07T12:30:52;19.40;99.90
5210;DHT22;2624;48.048;11.706;2023-05-07T12:35:55;19.60;99.90
5210;DHT22;2624;48.048;11.706;2023-05-07T12:40:57;19.80;99.90
5210;DHT22;2624;48.048;11.706;2023-05-07T12:46:03;19.70;99.90
5210;DHT22;2624;48.048;11.706;2023-05-07T12:51:05;19.80;99.90
5210;DHT22;2624;48.048;11.706;2023-05-07T12:56:08;19.90;99.90
5210;DHT22;2624;48.048;11.706;2023-05-07T13:01:11;20.00;99.90
5210;DHT22;2624;48.048;11.706;2023-05-07T13:06:15;20.20;99.90
5210;DHT22;2624;48.048;11.706;2023-05-07T13:11:17;20.30;99.90
5210;DHT22;2624;48.048;11.706;2023-05-07T13:16:20;20.50;99.90
5210;DHT22;2624;48.048;11.706;2023-05-07T13:21:22;20.70;99.90
5210;DHT22;2624;48.048;11.706;2023-05-07T13:26:24;20.50;99.90
5210;DHT22;2624;48.048;11.706;2023-05-07T13:31:27;20.30;99.90
5210;DHT22;2624;48.048;11.706;2023-05-07T13:36:29;20.40;99.90
5210;DHT22;2624;48.048;11.706;2023-05-07T13:41:33;20.60;99.90
5210;DHT22;2624;48.048;11.706;2023-05-07T13:46:36;20.60;99.90
5210;DHT22;2624;48.048;11.706;2023-05-07T13:51:38;20.60;99.90
5210;DHT22;2624;48.048;11.706;2023-05-07T13:56:40;20.30;99.90
5210;DHT22;2624;48.048;11.706;2023-05-07T14:01:43;20.40;99.90
5210;DHT22;2624;48.048;11.706;2023-05-07T14:06:45;20.40;99.90
5210;DHT22;2624;48.048;11.706;2023-05-07T14:11:47;20.40;99.90
5210;DHT22;2624;48.048;11.706;2023-05-07T14:16:53;20.40;99.90
5210;DHT22;2624;48.048;11.706;2023-05-07T14:21:54;20.50;99.90
5210;DHT22;2624;48.048;11.706;2023-05-07T14:26:56;20.40;99.90
5210;DHT22;2624;48.048;11.706;2023-05-07T14:31:59;20.40;99.90
5210;DHT22;2624;48.048;11.706;2023-05-07T14:37:01;20.30;99.90
5210;DHT22;2624;48.048;11.706;2023-05-07T14:42:03;20.30;99.90
5210;DHT22;2624;48.048;11.706;2023-05-07T14:47:06;20.30;99.90
5210;DHT22;2624;48.048;11.706;2023-05-07T14:52:08;20.30;99.90
5210;DHT22;2624;48.048;11.706;2023-05-07T14:57:10;20.30;99.90
5210;DHT22;2624;48.048;11.706;2023-05-07T15:02:15;20.20;99.90
5210;DHT22;2624;48.048;11.706;2023-05-07T15:07:17;20.20;99.90
5210;DHT22;2624;48.048;11.706;2023-05-07T15:12:19;20.20;99.90
5210;DHT22;2624;48.048;11.706;2023-05-07T15:17:22;20.20;99.90
5210;DHT22;2624;48.048;11.706;2023-05-07T15:22:24;20.20;99.90
5210;DHT22;2624;48.048;11.706;2023-05-07T15:27:26;20.20;99.90
5210;DHT22;2624;48.048;11.706;2023-05-07T15:32:29;20.20;99.90
5210;DHT22;2624;48.048;11.706;2023-05-07T15:37:31;20.20;99.90
5210;DHT22;2624;48.048;11.706;2023-05-07T15:42:33;20.20;99.90
5210;DHT22;2624;48.048;11.706;2023-05-07T15:47:36;20.20;99.90
5210;DHT22;2624;48.048;11.706;2023-05-07T15:52:38;20.20;99.90
5210;DHT22;2624;48.048;11.706;2023-05-07T15:57:41;20.10;99.90
5210;DHT22;2624;48.048;11.706;2023-05-07T16:02:44;20.10;99.90
5210;DHT22;2624;48.048;11.706;2023-05-07T16:07:46;20.00;99.90
5210;DHT22;2624;48.048;11.706;2023-05-07T16:12:48;19.90;99.90
5210;DHT22;2624;48.048;11.706;2023-05-07T16:17:51;19.90;99.90
5210;DHT22;2624;48.048;11.706;2023-05-07T16:22:57;19.90;99.90
5210;DHT22;2624;48.048;11.706;2023-05-07T16:27:59;19.90;99.90
5210;DHT22;2624;48.048;11.706;2023-05-07T16:33:02;19.80;99.90
5210;DHT22;2624;48.048;11.706;2023-05-07T16:38:03;19.70;99.90
5210;DHT22;2624;48.048;11.706;2023-05-07T16:43:09;19.70;99.90
5210;DHT22;2624;48.048;11.706;2023-05-07T16:48:12;19.80;99.90
5210;DHT22;2624;48.048;11.706;2023-05-07T16:53:14;19.60;99.90
5210;DHT22;2624;48.048;11.706;2023-05-07T16:58:16;19.60;99.90
5210;DHT22;2624;48.048;11.706;2023-05-07T17:03:19;19.60;99.90
5210;DHT22;2624;48.048;11.706;2023-05-07T17:08:21;19.60;99.90
5210;DHT22;2624;48.048;11.706;2023-05-07T17:13:22;19.50;99.90
5210;DHT22;2624;48.048;11.706;2023-05-07T17:18:26;19.50;99.90
5210;DHT22;2624;48.048;11.706;2023-05-07T17:23:27;19.40;99.90
5210;DHT22;2624;48.048;11.706;2023-05-07T17:28:29;19.30;99.90
5210;DHT22;2624;48.048;11.706;2023-05-07T17:33:32;19.30;99.90
5210;DHT22;2624;48.048;11.706;2023-05-07T17:38:34;19.40;99.90
5210;DHT22;2624;48.048;11.706;2023-05-07T17:43:36;19.40;99.90
5210;DHT22;2624;48.048;11.706;2023-05-07T17:48:39;19.30;99.90
5210;DHT22;2624;48.048;11.706;2023-05-07T17:53:41;19.20;99.90
5210;DHT22;2624;48.048;11.706;2023-05-07T17:58:42;19.30;99.90
5210;DHT22;2624;48.048;11.706;2023-05-07T18:03:45;19.10;99.90
5210;DHT22;2624;48.048;11.706;2023-05-07T18:08:48;19.10;99.90
5210;DHT22;2624;48.048;11.706;2023-05-07T18:13:49;19.00;99.90
5210;DHT22;2624;48.048;11.706;2023-05-07T18:18:53;19.10;99.90
5210;DHT22;2624;48.048;11.706;2023-05-07T18:23:55;19.10;99.90
5210;DHT22;2624;48.048;11.706;2023-05-07T18:28:57;19.10;99.90
5210;DHT22;2624;48.048;11.706;2023-05-07T18:34:00;19.00;99.90
5210;DHT22;2624;48.048;11.706;2023-05-07T18:39:02;19.00;99.90
5210;DHT22;2624;48.048;11.706;2023-05-07T18:44:04;19.00;99.90
5210;DHT22;2624;48.048;11.706;2023-05-07T18:49:08;18.80;99.90
5210;DHT22;2624;48.048;11.706;2023-05-07T18:54:09;18.70;99.90
5210;DHT22;2624;48.048;11.706;2023-05-07T18:59:11;18.80;99.90
5210;DHT22;2624;48.048;11.706;2023-05-07T19:04:14;18.80;99.90
5210;DHT22;2624;48.048;11.706;2023-05-07T19:09:17;18.80;99.90
5210;DHT22;2624;48.048;11.706;2023-05-07T19:14:19;18.70;99.90
5210;DHT22;2624;48.048;11.706;2023-05-07T19:19:22;18.60;99.90
5210;DHT22;2624;48.048;11.706;2023-05-07T19:24:24;18.60;99.90
5210;DHT22;2624;48.048;11.706;2023-05-07T19:29:25;18.60;99.90
5210;DHT22;2624;48.048;11.706;2023-05-07T19:34:29;18.60;99.90
5210;DHT22;2624;48.048;11.706;2023-05-07T19:39:31;18.60;99.90
5210;DHT22;2624;48.048;11.706;2023-05-07T19:44:32;18.50;99.90
5210;DHT22;2624;48.048;11.706;2023-05-07T19:49:36;18.50;99.90
5210;DHT22;2624;48.048;11.706;2023-05-07T19:54:37;18.40;99.90
5210;DHT22;2624;48.048;11.706;2023-05-07T19:59:39;18.40;99.90
5210;DHT22;2624;48.048;11.706;2023-05-07T20:04:42;18.30;99.90
5210;DHT22;2624;48.048;11.706;2023-05-07T20:09:44;18.30;99.90
5210;DHT22;2624;48.048;11.706;2023-05-07T20:14:46;18.30;99.90
5210;DHT22;2624;48.048;11.706;2023-05-07T20:19:49;18.30;99.90
5210;DHT22;2624;48.048;11.706;2023-05-07T20:24:51;18.20;99.90
5210;DHT22;2624;48.048;11.706;2023-05-07T20:29:52;18.20;99.90
5210;DHT22;2624;48.048;11.706;2023-05-07T20:34:56;18.10;99.90
5210;DHT22;2624;48.048;11.706;2023-05-07T20:39:57;17.80;99.90
5210;DHT22;2624;48.048;11.706;2023-05-07T20:44:59;17.80;99.90
5210;DHT22;2624;48.048;11.706;2023-05-07T20:50:03;17.60;99.90
5210;DHT22;2624;48.048;11.706;2023-05-07T20:55:06;17.40;99.90
5210;DHT22;2624;48.048;11.706;2023-05-07T21:00:08;17.50;99.90
5210;DHT22;2624;48.048;11.706;2023-05-07T21:05:12;17.70;99.90
5210;DHT22;2624;48.048;11.706;2023-05-07T21:10:13;17.50;99.90
5210;DHT22;2624;48.048;11.706;2023-05-07T21:15:15;17.30;99.90
5210;DHT22;2624;48.048;11.706;2023-05-07T21:20:19;17.30;99.90
5210;DHT22;2624;48.048;11.706;2023-05-07T21:25:20;17.50;99.90
5210;DHT22;2624;48.048;11.706;2023-05-07T21:30:22;17.30;99.90
5210;DHT22;2624;48.048;11.706;2023-05-07T21:35:25;17.00;99.90
5210;DHT22;2624;48.048;11.706;2023-05-07T21:40:27;17.40;99.90
5210;DHT22;2624;48.048;11.706;2023-05-07T21:45:29;17.30;99.90
5210;DHT22;2624;48.048;11.706;2023-05-07T21:50:32;17.30;99.90
5210;DHT22;2624;48.048;11.706;2023-05-07T21:55:34;17.10;99.90
5210;DHT22;2624;48.048;11.706;2023-05-07T22:00:36;17.20;99.90
5210;DHT22;2624;48.048;11.706;2023-05-07T22:05:39;16.90;99.90
5210;DHT22;2624;48.048;11.706;2023-05-07T22:10:40;16.80;99.90
5210;DHT22;2624;48.048;11.706;2023-05-07T22:15:42;16.90;99.90
5210;DHT22;2624;48.048;11.706;2023-05-07T22:20:45;16.80;99.90
5210;DHT22;2624;48.048;11.706;2023-05-07T22:25:47;16.50;99.90
5210;DHT22;2624;48.048;11.706;2023-05-07T22:30:49;16.40;99.90
5210;DHT22;2624;48.048;11.706;2023-05-07T22:35:52;16.40;99.90
5210;DHT22;2624;48.048;11.706;2023-05-07T22:40:54;16.50;99.90
5210;DHT22;2624;48.048;11.706;2023-05-07T22:45:59;16.40;99.90
5210;DHT22;2624;48.048;11.706;2023-05-07T22:51:02;16.30;99.90
5210;DHT22;2624;48.048;11.706;2023-05-07T22:56:05;16.30;99.90
5210;DHT22;2624;48.048;11.706;2023-05-07T23:01:10;16.10;99.90
5210;DHT22;2624;48.048;11.706;2023-05-07T23:06:14;16.00;99.90
5210;DHT22;2624;48.048;11.706;2023-05-07T23:11:15;16.20;99.90
5210;DHT22;2624;48.048;11.706;2023-05-07T23:16:17;16.00;99.90
5210;DHT22;2624;48.048;11.706;2023-05-07T23:21:21;16.30;99.90
5210;DHT22;2624;48.048;11.706;2023-05-07T23:26:25;16.50;99.90
5210;DHT22;2624;48.048;11.706;2023-05-07T23:31:27;16.40;99.90
5210;DHT22;2624;48.048;11.706;2023-05-07T23:36:30;16.20;99.90
5210;DHT22;2624;48.048;11.706;2023-05-07T23:41:32;15.70;99.90
5210;DHT22;2624;48.048;11.706;2023-05-07T23:46:34;16.00;99.90
5210;DHT22;2624;48.048;11.706;2023-05-07T23:51:37;16.20;99.90
5210;DHT22;2624;48.048;11.706;2023-05-07T23:56:39;16.00;99.90
